createdAt,value
2019-01-21T00:01:08.051Z,99.90
2019-01-21T00:03:35.301Z,99.90
2019-01-21T00:06:02.695Z,99.90
2019-01-21T00:08:29.950Z,99.90
2019-01-21T00:10:57.193Z,99.90
2019-01-21T00:13:24.719Z,99.90
2019-01-21T00:15:52.177Z,99.90
2019-01-21T00:18:19.759Z,99.90
2019-01-21T00:20:47.254Z,99.90
2019-01-21T00:23:14.540Z,99.90
2019-01-21T00:25:41.887Z,99.90
2019-01-21T00:28:09.229Z,99.90
2019-01-21T00:30:36.665Z,99.90
2019-01-21T00:33:04.070Z,99.90
2019-01-21T00:35:31.665Z,99.90
2019-01-21T00:37:59.367Z,99.90
2019-01-21T00:40:26.640Z,99.90
2019-01-21T00:42:53.922Z,99.90
2019-01-21T00:45:21.189Z,99.90
2019-01-21T00:47:48.615Z,99.90
2019-01-21T00:50:16.731Z,99.90
2019-01-21T00:52:44.189Z,99.90
2019-01-21T00:55:12.037Z,99.90
2019-01-21T00:57:39.289Z,99.90
2019-01-21T01:00:10.962Z,99.90
2019-01-21T01:02:38.266Z,99.90
2019-01-21T01:05:07.375Z,99.90
2019-01-21T01:07:34.765Z,99.90
2019-01-21T01:10:02.006Z,99.90
2019-01-21T01:12:29.374Z,99.90
2019-01-21T01:14:56.786Z,99.90
2019-01-21T01:17:24.044Z,99.90
2019-01-21T01:19:51.258Z,99.90
2019-01-21T01:22:18.489Z,99.90
2019-01-21T01:24:45.722Z,99.90
2019-01-21T01:27:12.985Z,99.90
2019-01-21T01:29:40.237Z,99.90
2019-01-21T01:32:07.621Z,99.90
2019-01-21T01:34:34.959Z,99.90
2019-01-21T01:37:02.264Z,99.90
2019-01-21T01:39:29.598Z,99.90
2019-01-21T01:41:56.893Z,99.90
2019-01-21T01:44:24.749Z,99.90
2019-01-21T01:46:52.135Z,99.90
2019-01-21T01:49:19.478Z,99.90
2019-01-21T01:51:46.914Z,99.90
2019-01-21T01:54:14.812Z,99.90
2019-01-21T01:56:42.153Z,99.90
2019-01-21T01:59:09.877Z,99.90
2019-01-21T02:01:37.113Z,99.90
2019-01-21T02:04:04.621Z,99.90
2019-01-21T02:06:32.010Z,99.90
2019-01-21T02:08:59.262Z,99.90
2019-01-21T02:11:26.556Z,99.90
2019-01-21T02:13:54.594Z,99.90
2019-01-21T02:16:21.847Z,99.90
2019-01-21T02:18:49.200Z,99.90
2019-01-21T02:21:18.085Z,99.90
2019-01-21T02:23:48.218Z,99.90
2019-01-21T02:26:20.126Z,99.90
2019-01-21T02:29:06.606Z,99.90
2019-01-21T02:32:18.130Z,99.90
2019-01-21T02:35:14.294Z,99.90
2019-01-21T02:38:15.153Z,99.90
2019-01-21T02:40:57.634Z,99.90
2019-01-21T02:44:10.378Z,99.90
2019-01-21T02:47:09.150Z,99.90
2019-01-21T02:50:21.341Z,99.90
2019-01-21T02:53:27.284Z,99.90
2019-01-21T02:57:03.993Z,99.90
2019-01-21T03:00:07.025Z,99.90
2019-01-21T03:03:12.546Z,99.90
2019-01-21T03:06:17.164Z,99.90
2019-01-21T03:09:25.429Z,99.90
2019-01-21T03:12:30.470Z,99.90
2019-01-21T03:15:11.195Z,99.90
2019-01-21T03:18:28.542Z,99.90
2019-01-21T03:21:33.309Z,99.90
2019-01-21T03:24:29.256Z,99.90
2019-01-21T03:27:30.641Z,99.90
2019-01-21T03:30:34.699Z,99.90
2019-01-21T03:33:37.831Z,99.90
2019-01-21T03:36:29.927Z,99.90
2019-01-21T03:39:51.424Z,99.90
2019-01-21T03:42:40.830Z,99.90
2019-01-21T03:45:37.313Z,99.90
2019-01-21T03:48:51.665Z,99.90
2019-01-21T03:52:09.157Z,99.90
2019-01-21T03:54:40.974Z,99.90
2019-01-21T03:57:39.568Z,99.90
2019-01-21T04:00:45.849Z,99.90
2019-01-21T04:03:37.547Z,99.90
2019-01-21T04:06:35.901Z,99.90
2019-01-21T04:09:35.208Z,99.90
2019-01-21T04:12:28.350Z,99.90
2019-01-21T04:15:46.606Z,99.90
2019-01-21T04:19:19.882Z,99.90
2019-01-21T04:22:27.545Z,99.90
2019-01-21T04:25:33.288Z,99.90
2019-01-21T04:28:35.846Z,99.90
2019-01-21T04:31:29.814Z,99.90
2019-01-21T04:34:30.968Z,99.90
2019-01-21T04:37:29.651Z,99.90
2019-01-21T04:40:25.773Z,99.90
2019-01-21T04:43:32.166Z,99.90
2019-01-21T04:46:32.443Z,99.90
2019-01-21T04:49:23.606Z,99.90
2019-01-21T04:52:29.642Z,99.90
2019-01-21T04:55:25.230Z,99.90
2019-01-21T04:58:17.894Z,99.90
2019-01-21T05:01:32.128Z,99.90
2019-01-21T05:05:05.650Z,99.90
2019-01-21T05:08:26.158Z,99.90
2019-01-21T05:11:43.144Z,99.90
2019-01-21T05:14:48.458Z,99.90
2019-01-21T05:17:46.594Z,99.90
2019-01-21T05:20:47.894Z,99.90
2019-01-21T05:23:57.697Z,99.90
2019-01-21T05:26:54.713Z,99.90
2019-01-21T05:29:59.062Z,99.90
2019-01-21T05:33:14.278Z,99.90
2019-01-21T05:36:08.226Z,99.90
2019-01-21T05:39:14.498Z,99.90
2019-01-21T05:42:09.906Z,99.90
2019-01-21T05:45:46.756Z,99.90
2019-01-21T05:48:50.581Z,99.90
2019-01-21T05:51:43.987Z,99.90
2019-01-21T05:54:58.563Z,99.90
2019-01-21T05:57:56.347Z,99.90
2019-01-21T06:01:01.600Z,99.90
2019-01-21T06:04:00.840Z,99.90
2019-01-21T06:07:28.451Z,99.90
2019-01-21T06:10:30.367Z,99.90
2019-01-21T06:13:41.664Z,99.90
2019-01-21T06:16:48.185Z,99.90
2019-01-21T06:20:03.171Z,99.90
2019-01-21T06:23:17.154Z,99.90
2019-01-21T06:26:46.538Z,99.90
2019-01-21T06:29:39.518Z,99.90
2019-01-21T06:32:50.570Z,99.90
2019-01-21T06:36:08.673Z,99.90
2019-01-21T06:39:31.554Z,99.90
2019-01-21T06:42:29.871Z,99.90
2019-01-21T06:45:48.030Z,99.90
2019-01-21T06:49:04.453Z,99.90
2019-01-21T06:52:11.882Z,99.90
2019-01-21T06:55:21.526Z,99.90
2019-01-21T06:58:20.322Z,99.90
2019-01-21T07:01:24.590Z,99.90
2019-01-21T07:04:28.871Z,99.90
2019-01-21T07:07:33.818Z,99.90
2019-01-21T07:10:39.330Z,99.90
2019-01-21T07:13:43.270Z,99.90
2019-01-21T07:16:51.686Z,99.90
2019-01-21T07:20:05.282Z,99.90
2019-01-21T07:23:02.330Z,99.90
2019-01-21T07:26:14.173Z,99.90
2019-01-21T07:29:11.314Z,99.90
2019-01-21T07:32:10.226Z,99.90
2019-01-21T07:35:02.749Z,99.90
2019-01-21T07:38:04.321Z,99.90
2019-01-21T07:41:12.529Z,99.90
2019-01-21T07:44:05.382Z,99.90
2019-01-21T07:47:00.443Z,99.90
2019-01-21T07:49:51.465Z,99.90
2019-01-21T07:52:47.881Z,99.90
2019-01-21T07:56:01.967Z,99.90
2019-01-21T07:59:02.150Z,99.90
2019-01-21T08:02:06.666Z,99.80
2019-01-21T08:04:58.262Z,99.90
2019-01-21T08:08:13.825Z,99.90
2019-01-21T08:11:41.163Z,99.90
2019-01-21T08:14:27.898Z,99.90
2019-01-21T08:17:46.030Z,99.90
2019-01-21T08:20:31.207Z,99.90
2019-01-21T08:23:30.237Z,99.90
2019-01-21T08:26:40.855Z,99.90
2019-01-21T08:29:36.563Z,99.90
2019-01-21T08:32:35.790Z,99.80
2019-01-21T08:35:38.387Z,99.90
2019-01-21T08:38:45.907Z,99.80
2019-01-21T08:41:42.418Z,99.50
2019-01-21T08:44:46.350Z,99.90
2019-01-21T08:47:58.167Z,99.90
2019-01-21T08:51:16.518Z,99.50
2019-01-21T08:54:34.754Z,98.40
2019-01-21T08:57:47.234Z,98.30
2019-01-21T09:00:56.695Z,98.50
2019-01-21T09:03:50.038Z,99.00
2019-01-21T09:06:37.089Z,98.50
2019-01-21T09:09:35.342Z,98.50
2019-01-21T09:12:33.206Z,98.30
2019-01-21T09:15:57.522Z,98.20
2019-01-21T09:18:53.418Z,98.30
2019-01-21T09:21:55.990Z,98.20
2019-01-21T09:25:04.090Z,98.60
2019-01-21T09:28:04.082Z,98.00
2019-01-21T09:31:34.323Z,98.20
2019-01-21T09:34:48.501Z,98.90
2019-01-21T09:37:52.757Z,98.90
2019-01-21T09:41:14.401Z,97.40
2019-01-21T09:44:08.325Z,95.30
2019-01-21T09:46:44.575Z,93.50
2019-01-21T09:49:10.870Z,94.70
2019-01-21T09:51:40.618Z,94.10
2019-01-21T09:54:08.290Z,95.00
2019-01-21T09:56:37.429Z,93.90
2019-01-21T09:59:04.778Z,93.30
2019-01-21T10:01:32.959Z,94.30
2019-01-21T10:04:01.281Z,93.60
2019-01-21T10:07:10.107Z,93.60
2019-01-21T10:10:31.182Z,93.90
2019-01-21T10:13:56.939Z,93.90
2019-01-21T10:17:09.485Z,94.30
2019-01-21T10:20:15.494Z,94.60
2019-01-21T10:23:25.010Z,95.00
2019-01-21T10:26:30.218Z,95.00
2019-01-21T10:29:26.756Z,95.20
2019-01-21T10:32:31.866Z,95.60
2019-01-21T10:35:41.937Z,95.90
2019-01-21T10:38:57.446Z,96.20
2019-01-21T10:41:47.410Z,96.50
2019-01-21T10:44:33.802Z,96.80
2019-01-21T10:47:22.461Z,96.60
2019-01-21T10:50:27.915Z,96.80
2019-01-21T10:53:37.302Z,96.90
2019-01-21T10:57:04.638Z,96.80
2019-01-21T11:00:00.241Z,96.80
2019-01-21T11:03:14.386Z,96.70
2019-01-21T11:05:50.946Z,96.50
2019-01-21T11:08:57.312Z,96.60
2019-01-21T11:11:54.486Z,96.00
2019-01-21T11:14:35.953Z,95.90
2019-01-21T11:17:40.066Z,95.90
2019-01-21T11:20:34.154Z,95.90
2019-01-21T11:23:29.667Z,96.00
2019-01-21T11:26:31.221Z,95.90
2019-01-21T11:29:39.674Z,96.10
2019-01-21T11:32:47.530Z,95.80
2019-01-21T11:35:46.681Z,95.70
2019-01-21T11:38:47.654Z,96.20
2019-01-21T11:42:09.222Z,95.90
2019-01-21T11:45:24.838Z,95.30
2019-01-21T11:48:25.646Z,95.40
2019-01-21T11:51:21.703Z,95.30
2019-01-21T11:54:13.863Z,95.10
2019-01-21T11:56:58.646Z,94.70
2019-01-21T12:00:01.811Z,94.80
2019-01-21T12:03:08.174Z,95.00
2019-01-21T12:05:49.832Z,94.60
2019-01-21T12:08:54.873Z,94.50
2019-01-21T12:12:31.575Z,94.20
2019-01-21T12:15:35.842Z,94.60
2019-01-21T12:18:30.092Z,94.90
2019-01-21T12:21:25.081Z,95.30
2019-01-21T12:24:32.557Z,95.50
2019-01-21T12:27:55.789Z,95.70
2019-01-21T12:30:50.990Z,95.50
2019-01-21T12:33:57.699Z,95.70
2019-01-21T12:37:02.406Z,95.80
2019-01-21T12:40:01.902Z,96.10
2019-01-21T12:43:23.599Z,95.90
2019-01-21T12:46:14.910Z,95.50
2019-01-21T12:49:16.762Z,95.00
2019-01-21T12:52:19.208Z,95.60
2019-01-21T12:55:34.513Z,94.90
2019-01-21T12:58:52.865Z,94.60
2019-01-21T13:02:01.333Z,94.70
2019-01-21T13:04:54.565Z,94.20
2019-01-21T13:07:28.505Z,94.70
2019-01-21T13:10:44.414Z,94.20
2019-01-21T13:13:50.735Z,94.80
2019-01-21T13:16:26.742Z,94.20
2019-01-21T13:19:16.510Z,94.00
2019-01-21T13:22:09.274Z,93.80
2019-01-21T13:25:14.127Z,94.20
2019-01-21T13:28:13.875Z,94.30
2019-01-21T13:31:26.246Z,94.70
2019-01-21T13:34:08.861Z,94.70
2019-01-21T13:37:10.111Z,94.60
2019-01-21T13:39:54.655Z,94.60
2019-01-21T13:43:02.942Z,94.20
2019-01-21T13:46:05.699Z,94.00
2019-01-21T13:49:05.551Z,93.60
2019-01-21T13:52:21.121Z,94.00
2019-01-21T13:55:10.919Z,93.70
2019-01-21T13:57:47.783Z,93.70
2019-01-21T14:00:27.970Z,93.10
2019-01-21T14:03:29.231Z,92.80
2019-01-21T14:06:44.949Z,92.40
2019-01-21T14:09:58.358Z,92.80
2019-01-21T14:13:12.510Z,92.80
2019-01-21T14:15:52.383Z,93.00
2019-01-21T14:18:41.862Z,91.20
2019-01-21T14:21:27.511Z,90.20
2019-01-21T14:24:26.616Z,89.30
2019-01-21T14:27:06.518Z,83.00
2019-01-21T14:29:48.474Z,82.80
2019-01-21T14:32:53.058Z,83.60
2019-01-21T14:35:30.783Z,81.40
2019-01-21T14:38:36.049Z,80.10
2019-01-21T14:41:40.362Z,78.80
2019-01-21T14:44:44.604Z,78.70
2019-01-21T14:47:49.984Z,78.90
2019-01-21T14:50:42.349Z,78.70
2019-01-21T14:53:40.452Z,78.80
2019-01-21T14:56:55.028Z,77.90
2019-01-21T14:59:43.287Z,76.80
2019-01-21T15:02:28.156Z,78.50
2019-01-21T15:05:40.500Z,80.30
2019-01-21T15:08:14.058Z,80.50
2019-01-21T15:11:39.567Z,80.70
2019-01-21T15:14:46.450Z,81.20
2019-01-21T15:18:07.917Z,82.50
2019-01-21T15:21:07.067Z,82.70
2019-01-21T15:24:09.282Z,82.70
2019-01-21T15:27:00.491Z,83.20
2019-01-21T15:29:58.346Z,84.20
2019-01-21T15:33:04.604Z,85.10
2019-01-21T15:36:11.107Z,85.30
2019-01-21T15:39:15.305Z,86.60
2019-01-21T15:42:23.755Z,87.10
2019-01-21T15:45:50.785Z,87.50
2019-01-21T15:48:49.851Z,88.30
2019-01-21T15:52:05.615Z,88.40
2019-01-21T15:55:25.171Z,88.90
2019-01-21T15:58:08.221Z,89.30
2019-01-21T16:00:58.338Z,89.50
2019-01-21T16:03:52.994Z,90.20
2019-01-21T16:07:03.550Z,90.60
2019-01-21T16:10:16.042Z,90.70
2019-01-21T16:13:14.498Z,90.90
2019-01-21T16:16:35.649Z,90.70
2019-01-21T16:19:12.795Z,90.40
2019-01-21T16:22:21.698Z,90.00
2019-01-21T16:25:05.978Z,90.00
2019-01-21T16:28:20.422Z,90.50
2019-01-21T16:31:26.697Z,90.80
2019-01-21T16:34:16.792Z,90.90
2019-01-21T16:36:57.147Z,91.50
2019-01-21T16:40:21.521Z,91.70
2019-01-21T16:42:48.778Z,92.10
2019-01-21T16:45:16.004Z,91.40
2019-01-21T16:47:43.415Z,91.30
2019-01-21T16:50:11.162Z,91.40
2019-01-21T16:52:38.561Z,91.60
2019-01-21T16:55:06.081Z,92.10
2019-01-21T16:57:33.497Z,91.80
2019-01-21T17:00:00.898Z,92.00
2019-01-21T17:02:28.202Z,91.80
2019-01-21T17:04:55.445Z,92.20
2019-01-21T17:07:22.778Z,92.70
2019-01-21T17:09:50.250Z,92.50
2019-01-21T17:12:17.521Z,92.90
2019-01-21T17:14:44.850Z,93.00
2019-01-21T17:19:39.722Z,93.20
2019-01-21T17:22:07.007Z,93.20
2019-01-21T17:24:34.245Z,92.90
2019-01-21T17:27:01.538Z,92.70
2019-01-21T17:29:28.751Z,92.90
2019-01-21T17:31:56.360Z,92.80
2019-01-21T17:34:23.615Z,92.90
2019-01-21T17:36:50.986Z,93.10
2019-01-21T17:39:18.322Z,93.00
2019-01-21T17:41:45.558Z,93.10
2019-01-21T17:44:13.030Z,93.40
2019-01-21T17:46:40.278Z,93.70
2019-01-21T17:49:07.542Z,94.10
2019-01-21T17:51:35.462Z,94.40
2019-01-21T17:54:03.454Z,94.50
2019-01-21T17:56:30.804Z,94.60
2019-01-21T17:58:58.588Z,95.10
2019-01-21T18:01:25.920Z,95.70
2019-01-21T18:03:53.194Z,95.60
2019-01-21T18:06:20.535Z,95.50
2019-01-21T18:08:47.785Z,95.50
2019-01-21T18:11:15.353Z,95.20
2019-01-21T18:13:42.577Z,94.80
2019-01-21T18:16:09.820Z,95.00
2019-01-21T18:18:37.054Z,94.90
2019-01-21T18:21:04.325Z,95.10
2019-01-21T18:23:31.577Z,95.40
2019-01-21T18:25:58.938Z,95.40
2019-01-21T18:28:26.146Z,95.80
2019-01-21T18:30:53.572Z,96.30
2019-01-21T18:33:20.930Z,96.40
2019-01-21T18:35:48.193Z,96.60
2019-01-21T18:38:15.565Z,96.90
2019-01-21T18:40:42.920Z,97.00
2019-01-21T18:43:10.148Z,96.50
2019-01-21T18:45:37.693Z,96.80
2019-01-21T18:48:04.976Z,97.10
2019-01-21T18:50:32.255Z,96.90
2019-01-21T18:52:59.527Z,97.10
2019-01-21T18:55:26.815Z,97.40
2019-01-21T18:57:55.956Z,97.50
2019-01-21T19:00:25.162Z,97.40
2019-01-21T19:02:52.619Z,97.70
2019-01-21T19:05:20.054Z,97.50
2019-01-21T19:07:47.340Z,97.70
2019-01-21T19:10:15.069Z,98.00
2019-01-21T19:12:42.433Z,98.20
2019-01-21T19:15:15.558Z,98.30
2019-01-21T19:17:42.892Z,98.50
2019-01-21T19:20:10.975Z,98.50
2019-01-21T19:22:38.323Z,98.30
2019-01-21T19:25:06.750Z,98.30
2019-01-21T19:27:34.179Z,98.10
2019-01-21T19:30:01.420Z,98.20
2019-01-21T19:32:29.674Z,97.80
2019-01-21T19:34:56.914Z,97.50
2019-01-21T19:37:24.179Z,97.40
2019-01-21T19:39:51.418Z,97.50
2019-01-21T19:42:18.793Z,97.50
2019-01-21T19:44:46.039Z,97.80
2019-01-21T19:47:13.392Z,97.70
2019-01-21T19:49:40.690Z,98.00
2019-01-21T19:52:07.922Z,97.90
2019-01-21T19:54:35.245Z,97.70
2019-01-21T19:57:02.499Z,97.70
2019-01-21T19:59:29.786Z,97.80
2019-01-21T20:01:57.022Z,97.50
2019-01-21T20:04:24.249Z,97.30
2019-01-21T20:06:51.500Z,98.20
2019-01-21T20:09:18.741Z,97.80
2019-01-21T20:11:45.985Z,97.80
2019-01-21T20:14:13.311Z,98.20
2019-01-21T20:16:40.534Z,98.10
2019-01-21T20:19:07.774Z,97.50
2019-01-21T20:21:35.914Z,97.80
2019-01-21T20:24:03.258Z,98.50
2019-01-21T20:26:30.515Z,98.90
2019-01-21T20:28:57.777Z,99.40
2019-01-21T20:31:25.221Z,98.40
2019-01-21T20:33:52.595Z,98.40
2019-01-21T20:36:19.941Z,98.20
2019-01-21T20:38:47.211Z,98.20
2019-01-21T20:41:14.510Z,97.90
2019-01-21T20:43:41.750Z,97.40
2019-01-21T20:46:09.070Z,97.40
2019-01-21T20:48:36.449Z,98.00
2019-01-21T20:51:03.695Z,98.10
2019-01-21T20:53:31.089Z,97.90
2019-01-21T20:55:58.337Z,97.70
2019-01-21T20:58:25.569Z,97.70
2019-01-21T21:00:52.823Z,97.60
2019-01-21T21:03:20.056Z,97.40
2019-01-21T21:05:47.433Z,97.70
2019-01-21T21:08:14.829Z,98.00
2019-01-21T21:10:42.222Z,97.60
2019-01-21T21:13:09.599Z,98.00
2019-01-21T21:15:36.991Z,97.90
2019-01-21T21:18:04.390Z,98.30
2019-01-21T21:20:31.765Z,97.70
2019-01-21T21:22:59.133Z,97.80
2019-01-21T21:25:26.523Z,97.40
2019-01-21T21:27:54.063Z,97.80
2019-01-21T21:30:24.187Z,98.30
2019-01-21T21:32:51.684Z,98.70
2019-01-21T21:35:19.686Z,98.90
2019-01-21T21:37:47.189Z,98.90
2019-01-21T21:40:15.911Z,98.80
2019-01-21T21:42:43.594Z,98.80
2019-01-21T21:45:12.701Z,98.40
2019-01-21T21:47:40.200Z,97.60
2019-01-21T21:50:11.549Z,98.00
2019-01-21T21:52:38.962Z,98.10
2019-01-21T21:55:07.648Z,97.90
2019-01-21T21:57:35.042Z,97.80
2019-01-21T22:00:03.790Z,97.70
2019-01-21T22:02:31.200Z,97.80
2019-01-21T22:04:58.686Z,97.60
2019-01-21T22:07:26.162Z,97.50
2019-01-21T22:09:53.542Z,97.40
2019-01-21T22:12:20.930Z,97.20
2019-01-21T22:14:48.330Z,97.30
2019-01-21T22:17:15.832Z,97.50
2019-01-21T22:19:43.222Z,97.70
2019-01-21T22:22:10.595Z,98.10
2019-01-21T22:24:38.094Z,97.90
2019-01-21T22:27:05.479Z,97.30
2019-01-21T22:29:32.937Z,97.10
2019-01-21T22:32:00.197Z,98.20
2019-01-21T22:34:27.457Z,97.90
2019-01-21T22:36:54.678Z,97.90
2019-01-21T22:39:22.007Z,98.10
2019-01-21T22:41:49.249Z,98.10
2019-01-21T22:44:16.574Z,98.40
2019-01-21T22:46:43.790Z,97.90
2019-01-21T22:49:11.030Z,98.00
2019-01-21T22:51:38.250Z,97.90
2019-01-21T22:54:05.567Z,97.50
2019-01-21T22:56:32.818Z,97.60
2019-01-21T22:59:00.035Z,97.70
2019-01-21T23:01:29.566Z,97.40
2019-01-21T23:03:56.910Z,97.60
2019-01-21T23:06:24.130Z,98.50
2019-01-21T23:08:51.472Z,99.20
2019-01-21T23:11:18.794Z,99.60
2019-01-21T23:13:46.046Z,99.60
2019-01-21T23:16:13.694Z,99.30
2019-01-21T23:18:40.962Z,99.90
2019-01-21T23:21:08.398Z,99.90
2019-01-21T23:23:35.651Z,99.00
2019-01-21T23:26:03.182Z,98.50
2019-01-21T23:28:30.539Z,98.50
2019-01-21T23:30:57.791Z,98.50
2019-01-21T23:33:25.146Z,98.40
2019-01-21T23:35:52.466Z,98.20
2019-01-21T23:38:19.814Z,97.50
2019-01-21T23:40:47.210Z,97.90
2019-01-21T23:43:14.492Z,97.90
2019-01-21T23:45:41.974Z,97.40
2019-01-21T23:48:09.415Z,97.40
2019-01-21T23:50:36.742Z,97.20
2019-01-21T23:53:04.302Z,97.10
2019-01-21T23:55:31.638Z,97.00
2019-01-21T23:57:58.886Z,96.80
